createdAt,value
2023-05-05T00:00:45.842Z,100911.65
2023-05-05T00:03:10.657Z,100908.98
2023-05-05T00:05:46.120Z,100908.88
2023-05-05T00:08:21.702Z,100908.19
2023-05-05T00:10:57.550Z,100904.20
2023-05-05T00:13:32.176Z,100899.52
2023-05-05T00:15:59.418Z,100896.86
2023-05-05T00:18:34.950Z,100896.52
2023-05-05T00:21:10.071Z,100897.66
2023-05-05T00:23:34.426Z,100901.05
2023-05-05T00:26:12.542Z,100902.67
2023-05-05T00:28:47.478Z,100905.17
2023-05-05T00:31:14.851Z,100907.70
2023-05-05T00:33:48.552Z,100912.02
2023-05-05T00:36:18.466Z,100914.45
2023-05-05T00:38:52.179Z,100919.75
2023-05-05T00:41:16.874Z,100923.48
2023-05-05T00:43:45.810Z,100928.96
2023-05-05T00:46:27.254Z,100929.91
2023-05-05T00:49:02.469Z,100933.80
2023-05-05T00:51:36.454Z,100945.05
2023-05-05T00:54:09.023Z,100944.18
2023-05-05T00:56:43.609Z,100939.20
2023-05-05T00:59:17.356Z,100936.34
2023-05-05T01:01:53.988Z,100935.49
2023-05-05T01:04:30.194Z,100933.52
2023-05-05T01:07:07.063Z,100930.77
2023-05-05T01:10:00.820Z,100929.39
2023-05-05T01:12:53.699Z,100930.14
2023-05-05T01:15:25.664Z,100927.48
2023-05-05T01:18:05.206Z,100925.61
2023-05-05T01:20:52.218Z,100913.52
2023-05-05T01:23:13.115Z,100908.67
2023-05-05T01:26:09.961Z,100907.27
2023-05-05T01:28:54.214Z,100906.04
2023-05-05T01:31:52.748Z,100904.61
2023-05-05T01:34:13.421Z,100898.19
2023-05-05T01:36:50.070Z,100899.27
2023-05-05T01:39:20.053Z,100908.06
2023-05-05T01:41:41.511Z,100912.81
2023-05-05T01:44:08.340Z,100912.29
2023-05-05T01:46:37.112Z,100909.60
2023-05-05T01:49:13.058Z,100904.60
2023-05-05T01:51:34.136Z,100906.03
2023-05-05T01:56:30.511Z,100908.57
2023-05-05T01:59:07.922Z,100913.69
2023-05-05T02:01:45.934Z,100916.80
2023-05-05T02:04:10.898Z,100921.38
2023-05-05T02:06:37.306Z,100922.02
2023-05-05T02:09:11.088Z,100931.39
2023-05-05T02:11:46.706Z,100931.26
2023-05-05T02:14:21.281Z,100930.33
2023-05-05T02:16:58.803Z,100930.06
2023-05-05T02:19:39.744Z,100938.30
2023-05-05T02:22:02.878Z,100939.67
2023-05-05T02:24:27.867Z,100945.02
2023-05-05T02:26:58.076Z,100942.67
2023-05-05T02:29:57.456Z,100940.65
2023-05-05T02:32:20.656Z,100936.31
2023-05-05T02:34:43.736Z,100940.42
2023-05-05T02:37:21.430Z,100943.53
2023-05-05T02:41:11.917Z,100941.77
2023-05-05T02:42:51.153Z,100944.81
2023-05-05T02:45:23.824Z,100944.09
2023-05-05T02:48:00.493Z,100947.43
2023-05-05T02:50:30.154Z,100946.58
2023-05-05T02:52:52.873Z,100947.98
2023-05-05T02:58:12.411Z,100955.45
2023-05-05T03:00:36.724Z,100955.73
2023-05-05T03:03:15.004Z,100956.34
2023-05-05T03:05:47.051Z,100959.13
2023-05-05T03:08:21.003Z,100964.91
2023-05-05T03:10:45.684Z,100966.85
2023-05-05T03:13:23.832Z,100968.23
2023-05-05T03:15:48.284Z,100973.18
2023-05-05T03:18:18.826Z,100980.87
2023-05-05T03:20:47.350Z,100978.14
2023-05-05T03:23:04.239Z,100979.93
2023-05-05T03:25:44.547Z,100988.01
2023-05-05T03:28:09.650Z,100988.05
2023-05-05T03:30:35.261Z,100988.08
2023-05-05T03:32:52.656Z,100985.83
2023-05-05T03:35:21.113Z,100978.60
2023-05-05T03:37:38.757Z,100974.48
2023-05-05T03:39:57.208Z,100975.98
2023-05-05T03:42:14.451Z,100977.61
2023-05-05T03:44:45.035Z,100980.80
2023-05-05T03:47:28.031Z,100986.13
2023-05-05T03:50:01.839Z,100988.74
2023-05-05T03:52:27.520Z,100994.77
2023-05-05T03:54:55.373Z,100998.17
2023-05-05T03:57:20.461Z,100997.33
2023-05-05T03:59:55.175Z,100998.33
2023-05-05T04:02:13.674Z,101000.34
2023-05-05T04:04:49.565Z,100995.96
2023-05-05T04:07:16.102Z,100998.19
2023-05-05T04:09:35.304Z,101000.45
2023-05-05T04:11:58.541Z,100998.75
2023-05-05T04:14:33.076Z,100996.55
2023-05-05T04:16:58.409Z,100995.86
2023-05-05T04:19:18.746Z,101000.30
2023-05-05T04:21:44.607Z,100997.35
2023-05-05T04:24:24.266Z,100996.86
2023-05-05T04:26:57.465Z,101001.52
2023-05-05T04:29:23.142Z,101002.71
2023-05-05T04:31:57.402Z,101007.51
2023-05-05T04:34:31.782Z,101008.80
2023-05-05T04:37:05.129Z,101010.36
2023-05-05T04:39:39.915Z,101014.83
2023-05-05T04:41:58.964Z,101019.17
2023-05-05T04:44:33.604Z,101023.15
2023-05-05T04:47:08.252Z,101025.54
2023-05-05T04:49:28.694Z,101022.81
2023-05-05T04:51:47.893Z,101025.58
2023-05-05T04:54:11.851Z,101024.67
2023-05-05T04:56:39.156Z,101025.52
2023-05-05T04:59:01.966Z,101028.18
2023-05-05T05:01:23.410Z,101032.81
2023-05-05T05:03:43.191Z,101034.35
2023-05-05T05:06:03.556Z,101032.71
2023-05-05T05:08:27.167Z,101033.53
2023-05-05T05:10:52.138Z,101037.48
2023-05-05T05:13:12.849Z,101034.03
2023-05-05T05:15:44.124Z,101030.25
2023-05-05T05:18:08.468Z,101028.11
2023-05-05T05:20:42.178Z,101023.36
2023-05-05T05:22:56.494Z,101026.58
2023-05-05T05:25:27.759Z,101025.33
2023-05-05T05:28:02.260Z,101023.13
2023-05-05T05:30:32.169Z,101018.41
2023-05-05T05:32:51.592Z,101020.60
2023-05-05T05:35:13.454Z,101022.55
2023-05-05T05:37:38.979Z,101023.34
2023-05-05T05:39:58.053Z,101023.38
2023-05-05T05:42:12.292Z,101019.99
2023-05-05T05:44:46.705Z,101019.27
2023-05-05T05:47:14.334Z,101024.59
2023-05-05T05:49:48.579Z,101030.79
2023-05-05T05:52:10.180Z,101034.67
2023-05-05T05:54:33.932Z,101036.81
2023-05-05T05:56:53.612Z,101035.61
2023-05-05T05:59:28.391Z,101030.97
2023-05-05T06:01:56.071Z,101024.91
2023-05-05T06:04:29.790Z,101023.08
2023-05-05T06:06:44.131Z,101027.45
2023-05-05T06:09:00.816Z,101024.70
2023-05-05T06:11:15.509Z,101026.68
2023-05-05T06:13:33.746Z,101029.63
2023-05-05T06:16:04.824Z,101019.68
2023-05-05T06:18:39.929Z,101014.29
2023-05-05T06:21:03.277Z,101020.46
2023-05-05T06:23:25.315Z,101024.66
2023-05-05T06:25:59.999Z,101016.10
2023-05-05T06:28:35.701Z,101006.61
2023-05-05T06:31:11.298Z,101003.99
2023-05-05T06:33:39.386Z,101002.11
2023-05-05T06:36:13.968Z,101003.20
2023-05-05T06:38:39.689Z,101000.71
2023-05-05T06:41:07.953Z,101001.98
2023-05-05T06:43:44.142Z,101005.30
2023-05-05T06:46:18.140Z,101004.39
2023-05-05T06:48:48.331Z,101001.67
2023-05-05T06:51:23.909Z,101005.72
2023-05-05T06:53:57.596Z,101006.84
2023-05-05T06:56:26.347Z,101011.33
2023-05-05T06:58:53.741Z,101011.37
2023-05-05T07:01:28.031Z,101010.03
2023-05-05T07:04:03.025Z,101017.33
2023-05-05T07:06:30.652Z,101011.59
2023-05-05T07:09:05.546Z,101010.39
2023-05-05T07:11:39.012Z,101011.45
2023-05-05T07:14:01.804Z,101013.95
2023-05-05T07:16:38.229Z,101007.62
2023-05-05T07:19:12.468Z,101006.79
2023-05-05T07:21:48.385Z,101003.31
2023-05-05T07:24:23.597Z,101002.23
2023-05-05T07:26:59.615Z,101003.12
2023-05-05T07:29:34.655Z,101000.56
2023-05-05T07:32:09.909Z,100994.68
2023-05-05T07:34:43.598Z,100987.98
2023-05-05T07:37:17.987Z,100987.70
2023-05-05T07:39:54.097Z,100984.70
2023-05-05T07:42:28.883Z,100993.21
2023-05-05T07:45:05.445Z,100997.23
2023-05-05T07:47:39.249Z,100997.23
2023-05-05T07:50:18.219Z,100997.27
2023-05-05T07:53:02.535Z,100999.58
2023-05-05T07:55:37.272Z,101001.17
2023-05-05T07:58:12.140Z,101000.94
2023-05-05T08:00:46.856Z,100999.98
2023-05-05T08:03:25.423Z,100997.43
2023-05-05T08:05:59.773Z,100997.26
2023-05-05T08:08:28.213Z,100993.48
2023-05-05T08:11:03.893Z,100988.27
2023-05-05T08:13:26.712Z,100986.69
2023-05-05T08:16:02.234Z,100978.02
2023-05-05T08:18:38.715Z,100974.92
2023-05-05T08:21:02.403Z,100972.50
2023-05-05T08:23:36.653Z,100975.87
2023-05-05T08:26:03.489Z,100978.20
2023-05-05T08:28:27.588Z,100971.84
2023-05-05T08:31:01.105Z,100973.80
2023-05-05T08:33:35.600Z,100977.61
2023-05-05T08:36:11.617Z,100979.81
2023-05-05T08:38:46.292Z,100981.00
2023-05-05T08:41:12.600Z,100981.38
2023-05-05T08:43:51.676Z,100983.20
2023-05-05T08:46:29.307Z,100987.42
2023-05-05T08:49:04.973Z,100992.14
2023-05-05T08:51:45.543Z,100992.86
2023-05-05T08:54:13.506Z,100992.89
2023-05-05T08:56:51.119Z,100989.02
2023-05-05T08:59:18.823Z,100990.55
2023-05-05T09:04:43.288Z,100990.27
2023-05-05T09:07:10.548Z,100990.36
2023-05-05T09:09:46.575Z,100985.50
2023-05-05T09:12:22.357Z,100984.75
2023-05-05T09:14:49.274Z,100982.65
2023-05-05T09:17:35.176Z,100986.20
2023-05-05T09:20:21.593Z,100986.73
2023-05-05T09:22:59.249Z,100990.59
2023-05-05T09:25:25.359Z,100998.06
2023-05-05T09:27:59.698Z,100999.55
2023-05-05T09:30:28.228Z,101003.70
2023-05-05T09:32:58.531Z,101003.85
2023-05-05T09:35:24.157Z,100998.58
2023-05-05T09:38:01.664Z,101000.67
2023-05-05T09:40:29.535Z,101005.74
2023-05-05T09:43:08.691Z,101014.42
2023-05-05T09:45:34.894Z,101013.66
2023-05-05T09:48:11.095Z,101014.56
2023-05-05T09:50:52.645Z,101015.09
2023-05-05T09:53:28.115Z,101014.57
2023-05-05T09:56:04.680Z,101010.30
2023-05-05T09:58:39.950Z,101013.23
2023-05-05T10:01:27.970Z,101011.86
2023-05-05T10:04:03.203Z,101014.70
2023-05-05T10:06:50.801Z,101019.13
2023-05-05T10:09:25.013Z,101025.42
2023-05-05T10:12:02.808Z,101021.95
2023-05-05T10:14:30.486Z,101025.06
2023-05-05T10:17:01.514Z,101027.15
2023-05-05T10:19:39.300Z,101027.22
2023-05-05T10:25:00.580Z,101027.08
2023-05-05T10:27:37.718Z,101028.65
2023-05-05T10:30:21.039Z,101026.38
2023-05-05T10:33:07.973Z,101030.59
2023-05-05T10:35:53.422Z,101025.26
2023-05-05T10:38:32.734Z,101027.84
2023-05-05T10:43:45.723Z,101027.68
2023-05-05T10:46:22.213Z,101024.22
2023-05-05T10:49:05.139Z,101017.77
2023-05-05T10:51:51.480Z,101012.82
2023-05-05T10:54:31.656Z,101009.56
2023-05-05T10:57:09.706Z,101008.04
2023-05-05T10:59:53.004Z,101005.95
2023-05-05T11:02:28.448Z,101007.75
2023-05-05T11:05:27.352Z,101011.15
2023-05-05T11:08:30.430Z,101011.23
2023-05-05T11:11:06.513Z,101013.11
2023-05-05T11:13:42.242Z,101014.82
2023-05-05T11:16:06.535Z,101014.25
2023-05-05T11:21:33.572Z,101011.96
2023-05-05T11:24:32.645Z,101012.94
2023-05-05T11:27:07.100Z,101014.96
2023-05-05T11:30:13.505Z,101012.22
2023-05-05T11:33:07.629Z,101009.17
2023-05-05T11:36:05.989Z,101010.41
2023-05-05T11:38:52.173Z,101012.90
2023-05-05T11:41:39.080Z,101012.14
2023-05-05T11:44:19.275Z,101013.56
2023-05-05T11:47:22.720Z,101014.16
2023-05-05T11:49:58.618Z,101009.25
2023-05-05T11:52:21.581Z,101009.26
2023-05-05T11:54:58.549Z,101006.75
2023-05-05T11:57:36.657Z,101003.80
2023-05-05T12:00:02.182Z,101004.96
2023-05-05T12:02:36.839Z,101006.71
2023-05-05T12:05:13.166Z,101005.00
2023-05-05T12:07:49.190Z,101006.15
2023-05-05T12:10:14.744Z,101004.04
2023-05-05T12:12:52.059Z,101008.09
2023-05-05T12:15:17.609Z,101009.06
2023-05-05T12:17:49.168Z,101004.55
2023-05-05T12:20:32.287Z,101005.92
2023-05-05T12:23:09.408Z,101008.14
2023-05-05T12:25:47.056Z,101008.96
2023-05-05T12:28:12.527Z,101006.36
2023-05-05T12:30:36.957Z,101006.09
2023-05-05T12:33:12.220Z,101010.48
2023-05-05T12:35:47.421Z,101011.05
2023-05-05T12:38:23.911Z,101013.39
2023-05-05T12:40:58.278Z,101016.28
2023-05-05T12:43:36.055Z,101019.30
2023-05-05T12:46:17.305Z,101014.29
2023-05-05T12:49:05.874Z,101015.73
2023-05-05T12:51:42.782Z,101018.05
2023-05-05T12:54:18.682Z,101019.06
2023-05-05T12:56:58.406Z,101021.17
2023-05-05T12:59:44.967Z,101020.34
2023-05-05T13:02:21.275Z,101016.33
2023-05-05T13:05:01.189Z,101017.92
2023-05-05T13:07:35.675Z,101016.86
2023-05-05T13:10:19.112Z,101016.52
2023-05-05T13:12:53.762Z,101018.87
2023-05-05T13:15:29.153Z,101017.27
2023-05-05T13:18:07.578Z,101018.28
2023-05-05T13:20:43.758Z,101021.55
2023-05-05T13:23:17.773Z,101022.17
2023-05-05T13:25:52.642Z,101017.98
2023-05-05T13:31:09.903Z,101018.30
2023-05-05T13:33:44.465Z,101017.50
2023-05-05T13:36:18.913Z,101020.69
2023-05-05T13:38:52.246Z,101020.52
2023-05-05T13:41:28.164Z,101023.11
2023-05-05T13:44:02.563Z,101025.55
2023-05-05T13:46:36.682Z,101034.19
2023-05-05T13:49:11.359Z,101039.36
2023-05-05T13:51:36.736Z,101042.55
2023-05-05T13:54:11.695Z,101046.90
2023-05-05T13:56:48.105Z,101050.06
2023-05-05T13:59:27.804Z,101050.48
2023-05-05T14:02:02.581Z,101056.42
2023-05-05T14:04:37.177Z,101058.09
2023-05-05T14:07:12.040Z,101062.80
2023-05-05T14:09:46.830Z,101067.34
2023-05-05T14:12:21.520Z,101070.30
2023-05-05T14:14:57.386Z,101069.37
2023-05-05T14:17:31.479Z,101069.13
2023-05-05T14:20:09.466Z,101073.19
2023-05-05T14:22:44.636Z,101077.41
2023-05-05T14:25:21.382Z,101075.46
2023-05-05T14:27:55.840Z,101076.55
2023-05-05T14:30:32.174Z,101078.49
2023-05-05T14:33:07.789Z,101078.63
2023-05-05T14:35:42.592Z,101081.36
2023-05-05T14:38:18.251Z,101083.34
2023-05-05T14:40:52.990Z,101084.98
2023-05-05T14:43:28.992Z,101086.64
2023-05-05T14:46:00.239Z,101092.64
2023-05-05T14:48:34.325Z,101097.86
2023-05-05T14:51:10.003Z,101098.56
2023-05-05T14:53:33.149Z,101100.23
2023-05-05T14:56:08.794Z,101101.80
2023-05-05T14:58:43.370Z,101105.12
2023-05-05T15:01:07.054Z,101105.65
2023-05-05T15:03:41.746Z,101109.17
2023-05-05T15:06:16.302Z,101112.75
2023-05-05T15:08:52.401Z,101113.66
2023-05-05T15:14:17.607Z,101117.50
2023-05-05T15:16:53.195Z,101121.23
2023-05-05T15:19:28.533Z,101123.27
2023-05-05T15:22:03.644Z,101124.30
2023-05-05T15:24:39.142Z,101128.34
2023-05-05T15:27:06.896Z,101127.33
2023-05-05T15:29:43.426Z,101131.71
2023-05-05T15:32:07.764Z,101131.85
2023-05-05T15:34:30.471Z,101133.94
2023-05-05T15:37:06.188Z,101137.91
2023-05-05T15:39:31.948Z,101139.02
2023-05-05T15:42:11.435Z,101136.50
2023-05-05T15:44:45.440Z,101138.13
2023-05-05T15:47:19.738Z,101140.21
2023-05-05T15:52:44.427Z,101139.55
2023-05-05T15:55:22.032Z,101141.59
2023-05-05T15:57:56.966Z,101140.52
2023-05-05T16:00:22.591Z,101144.02
2023-05-05T16:02:57.234Z,101138.63
2023-05-05T16:05:33.366Z,101138.97
2023-05-05T16:08:10.819Z,101141.52
2023-05-05T16:10:46.141Z,101139.02
2023-05-05T16:13:22.723Z,101142.55
2023-05-05T16:15:57.239Z,101146.25
2023-05-05T16:18:30.463Z,101148.73
2023-05-05T16:21:06.598Z,101151.36
2023-05-05T16:23:41.722Z,101149.67
2023-05-05T16:26:06.768Z,101153.02
2023-05-05T16:28:42.075Z,101152.69
2023-05-05T16:31:16.102Z,101156.46
2023-05-05T16:33:51.116Z,101154.16
2023-05-05T16:36:26.503Z,101155.78
2023-05-05T16:39:00.010Z,101154.73
2023-05-05T16:41:33.607Z,101154.92
2023-05-05T16:44:08.829Z,101157.40
2023-05-05T16:46:44.558Z,101160.59
2023-05-05T16:49:19.958Z,101160.65
2023-05-05T16:51:55.498Z,101161.65
2023-05-05T16:54:30.764Z,101162.11
2023-05-05T16:57:06.675Z,101160.89
2023-05-05T16:59:44.161Z,101164.27
2023-05-05T17:02:18.558Z,101169.06
2023-05-05T17:04:54.737Z,101168.90
2023-05-05T17:07:28.077Z,101169.73
2023-05-05T17:10:03.812Z,101173.09
2023-05-05T17:12:26.659Z,101176.37
2023-05-05T17:15:01.370Z,101175.98
2023-05-05T17:17:37.435Z,101173.62
2023-05-05T17:20:14.448Z,101177.60
2023-05-05T17:22:40.360Z,101176.48
2023-05-05T17:25:10.401Z,101178.45
2023-05-05T17:27:46.218Z,101180.64
2023-05-05T17:30:09.246Z,101181.46
2023-05-05T17:32:44.214Z,101182.15
2023-05-05T17:35:08.438Z,101183.71
2023-05-05T17:37:43.154Z,101181.41
2023-05-05T17:40:21.783Z,101184.93
2023-05-05T17:42:57.554Z,101184.80
2023-05-05T17:45:33.136Z,101188.98
2023-05-05T17:48:08.327Z,101187.29
2023-05-05T17:50:43.747Z,101185.39
2023-05-05T17:53:19.301Z,101187.20
2023-05-05T17:55:54.714Z,101190.90
2023-05-05T17:58:28.481Z,101191.23
2023-05-05T18:01:03.578Z,101188.76
2023-05-05T18:03:28.299Z,101194.55
2023-05-05T18:06:04.082Z,101196.44
2023-05-05T18:08:39.338Z,101199.48
2023-05-05T18:11:13.835Z,101203.77
2023-05-05T18:13:47.229Z,101203.61
2023-05-05T18:16:22.247Z,101202.77
2023-05-05T18:18:57.812Z,101208.88
2023-05-05T18:21:33.358Z,101210.16
2023-05-05T18:24:19.309Z,101213.42
2023-05-05T18:26:56.128Z,101211.66
2023-05-05T18:29:19.370Z,101212.71
2023-05-05T18:31:55.760Z,101213.21
2023-05-05T18:34:32.446Z,101214.48
2023-05-05T18:37:07.966Z,101217.33
2023-05-05T18:39:43.948Z,101217.63
2023-05-05T18:42:09.032Z,101213.75
2023-05-05T18:44:34.744Z,101218.73
2023-05-05T18:46:59.427Z,101217.79
2023-05-05T18:49:33.750Z,101218.33
2023-05-05T18:52:10.603Z,101221.33
2023-05-05T18:54:46.081Z,101214.83
2023-05-05T18:57:20.972Z,101218.84
2023-05-05T18:59:57.704Z,101220.52
2023-05-05T19:02:34.510Z,101222.27
2023-05-05T19:05:03.725Z,101222.08
2023-05-05T19:07:43.282Z,101221.92
2023-05-05T19:10:21.222Z,101226.12
2023-05-05T19:12:54.788Z,101225.77
2023-05-05T19:15:22.053Z,101228.30
2023-05-05T19:17:58.585Z,101231.02
2023-05-05T19:20:39.641Z,101225.18
2023-05-05T19:23:14.381Z,101227.38
2023-05-05T19:25:50.396Z,101231.21
2023-05-05T19:28:26.957Z,101232.41
2023-05-05T19:30:49.784Z,101229.79
2023-05-05T19:33:13.748Z,101225.35
2023-05-05T19:35:47.701Z,101227.67
2023-05-05T19:38:24.689Z,101231.59
2023-05-05T19:40:52.221Z,101233.38
2023-05-05T19:43:27.018Z,101230.52
2023-05-05T19:45:53.812Z,101230.57
2023-05-05T19:48:29.538Z,101234.43
2023-05-05T19:51:05.053Z,101237.13
2023-05-05T19:53:41.095Z,101240.42
2023-05-05T19:56:15.663Z,101242.95
2023-05-05T19:59:08.318Z,101240.89
2023-05-05T20:01:36.041Z,101241.73
2023-05-05T20:04:01.778Z,101240.84
2023-05-05T20:06:37.758Z,101239.81
2023-05-05T20:09:11.890Z,101241.36
2023-05-05T20:11:46.958Z,101242.30
2023-05-05T20:14:23.759Z,101248.59
2023-05-05T20:16:57.769Z,101255.33
2023-05-05T20:19:32.302Z,101255.05
2023-05-05T20:22:07.854Z,101256.38
2023-05-05T20:24:31.151Z,101257.73
2023-05-05T20:27:06.309Z,101254.21
2023-05-05T20:29:42.404Z,101251.98
2023-05-05T20:32:16.032Z,101253.20
2023-05-05T20:34:50.702Z,101255.55
2023-05-05T20:37:28.101Z,101257.95
2023-05-05T20:40:03.413Z,101260.02
2023-05-05T20:42:38.185Z,101258.71
2023-05-05T20:45:15.381Z,101259.86
2023-05-05T20:47:40.133Z,101260.27
2023-05-05T20:50:15.270Z,101262.44
2023-05-05T20:52:49.371Z,101271.21
2023-05-05T20:55:23.275Z,101270.83
2023-05-05T20:58:00.478Z,101271.23
2023-05-05T21:00:23.416Z,101269.98
2023-05-05T21:02:59.769Z,101269.70
2023-05-05T21:05:27.960Z,101271.31
2023-05-05T21:08:02.257Z,101278.23
2023-05-05T21:10:37.990Z,101281.16
2023-05-05T21:13:11.939Z,101283.98
2023-05-05T21:15:41.349Z,101285.21
2023-05-05T21:18:17.668Z,101283.64
2023-05-05T21:20:52.718Z,101280.56
2023-05-05T21:23:16.385Z,101280.94
2023-05-05T21:25:50.688Z,101286.11
2023-05-05T21:28:26.178Z,101285.84
2023-05-05T21:31:19.821Z,101289.11
2023-05-05T21:33:53.934Z,101288.67
2023-05-05T21:36:28.504Z,101291.33
2023-05-05T21:39:03.372Z,101288.94
2023-05-05T21:41:26.552Z,101284.02
2023-05-05T21:43:49.533Z,101289.38
2023-05-05T21:46:23.879Z,101292.66
2023-05-05T21:48:57.771Z,101293.30
2023-05-05T21:51:23.896Z,101297.12
2023-05-05T21:53:58.479Z,101297.91
2023-05-05T21:56:34.251Z,101298.42
2023-05-05T21:59:01.682Z,101303.53
2023-05-05T22:01:35.817Z,101301.01
2023-05-05T22:04:09.907Z,101298.51
2023-05-05T22:06:33.590Z,101297.73
2023-05-05T22:09:09.006Z,101298.56
2023-05-05T22:11:42.782Z,101305.15
2023-05-05T22:14:10.264Z,101301.95
2023-05-05T22:16:46.193Z,101304.45
2023-05-05T22:19:20.161Z,101303.37
2023-05-05T22:21:54.619Z,101309.35
2023-05-05T22:24:28.536Z,101310.96
2023-05-05T22:27:02.933Z,101313.14
2023-05-05T22:29:37.977Z,101312.71
2023-05-05T22:32:11.962Z,101308.84
2023-05-05T22:34:37.240Z,101310.16
2023-05-05T22:37:11.019Z,101312.25
2023-05-05T22:39:45.411Z,101309.58
2023-05-05T22:42:20.421Z,101311.83
2023-05-05T22:44:54.988Z,101307.38
2023-05-05T22:47:29.976Z,101309.64
2023-05-05T22:49:48.550Z,101310.98
2023-05-05T22:52:24.252Z,101306.30
2023-05-05T22:54:57.180Z,101310.10
2023-05-05T22:57:23.600Z,101311.17
2023-05-05T22:59:47.297Z,101308.23
2023-05-05T23:02:20.747Z,101305.02
2023-05-05T23:04:44.901Z,101303.83
2023-05-05T23:07:18.814Z,101301.01
2023-05-05T23:09:52.549Z,101303.85
2023-05-05T23:12:26.820Z,101301.55
2023-05-05T23:15:01.404Z,101300.52
2023-05-05T23:17:35.478Z,101300.95
2023-05-05T23:20:13.351Z,101299.44
2023-05-05T23:22:47.872Z,101296.48
2023-05-05T23:25:21.903Z,101295.57
2023-05-05T23:27:55.231Z,101296.00
2023-05-05T23:30:29.882Z,101301.89
2023-05-05T23:33:03.899Z,101305.38
2023-05-05T23:35:40.591Z,101302.08
2023-05-05T23:38:15.855Z,101306.92
2023-05-05T23:40:42.686Z,101309.50
2023-05-05T23:43:04.715Z,101313.07
2023-05-05T23:45:31.694Z,101314.60
2023-05-05T23:47:58.674Z,101313.79
2023-05-05T23:50:23.848Z,101313.50
2023-05-05T23:53:00.399Z,101316.25
2023-05-05T23:55:25.988Z,101311.84
2023-05-05T23:57:59.453Z,101310.02
